createdAt,value
2022-12-23T00:00:45.435Z,2.93
2022-12-23T00:03:12.713Z,3.22
2022-12-23T00:05:40.797Z,3.70
2022-12-23T00:08:08.344Z,4.13
2022-12-23T00:10:39.663Z,3.88
2022-12-23T00:13:26.728Z,3.40
2022-12-23T00:16:13.122Z,3.85
2022-12-23T00:18:41.055Z,4.00
2022-12-23T00:21:15.014Z,3.75
2022-12-23T00:23:46.388Z,3.85
2022-12-23T00:26:20.558Z,3.87
2022-12-23T00:28:47.951Z,4.10
2022-12-23T00:31:18.640Z,4.43
2022-12-23T00:33:49.406Z,4.22
2022-12-23T00:36:30.835Z,4.90
2022-12-23T00:39:17.713Z,5.23
2022-12-23T00:42:03.758Z,4.85
2022-12-23T00:44:31.157Z,5.05
2022-12-23T00:46:58.541Z,4.75
2022-12-23T00:49:44.037Z,4.88
2022-12-23T00:52:15.559Z,3.77
2022-12-23T00:54:43.101Z,4.13
2022-12-23T00:57:10.823Z,4.13
2022-12-23T00:59:38.010Z,4.43
2022-12-23T01:02:24.074Z,3.90
2022-12-23T01:05:09.537Z,4.30
2022-12-23T01:07:36.654Z,3.55
2022-12-23T01:10:04.445Z,4.90
2022-12-23T01:12:31.572Z,4.43
2022-12-23T01:14:58.681Z,4.43
2022-12-23T01:17:25.800Z,4.23
2022-12-23T01:19:53.135Z,4.93
2022-12-23T01:22:20.270Z,3.70
2022-12-23T01:24:47.381Z,4.05
2022-12-23T01:27:14.506Z,3.95
2022-12-23T01:29:41.570Z,2.83
2022-12-23T01:32:08.754Z,3.60
2022-12-23T01:34:37.533Z,3.45
2022-12-23T01:37:05.443Z,3.88
2022-12-23T01:39:32.671Z,3.45
2022-12-23T01:42:18.582Z,2.47
2022-12-23T01:45:02.665Z,2.67
2022-12-23T01:47:46.200Z,2.25
2022-12-23T01:50:20.286Z,2.17
2022-12-23T01:53:08.318Z,2.45
2022-12-23T01:55:59.752Z,2.17
2022-12-23T01:58:38.941Z,2.50
2022-12-23T02:01:25.660Z,2.28
2022-12-23T02:03:58.177Z,2.85
2022-12-23T02:06:56.377Z,2.40
2022-12-23T02:09:33.564Z,2.60
2022-12-23T02:12:37.617Z,2.45
2022-12-23T02:15:52.836Z,2.40
2022-12-23T02:18:44.759Z,2.70
2022-12-23T02:21:45.358Z,2.22
2022-12-23T02:24:46.550Z,2.37
2022-12-23T02:27:30.598Z,3.03
2022-12-23T02:30:39.452Z,2.83
2022-12-23T02:33:28.323Z,3.15
2022-12-23T02:36:01.189Z,3.38
2022-12-23T02:38:34.721Z,2.60
2022-12-23T02:41:23.179Z,2.70
2022-12-23T02:43:58.183Z,2.53
2022-12-23T02:46:37.065Z,1.67
2022-12-23T02:49:15.465Z,1.70
2022-12-23T02:51:49.400Z,1.73
2022-12-23T02:54:23.321Z,2.20
2022-12-23T02:56:52.798Z,2.97
2022-12-23T02:59:36.229Z,3.30
2022-12-23T03:02:03.636Z,3.72
2022-12-23T03:04:30.930Z,3.47
2022-12-23T03:07:04.315Z,3.40
2022-12-23T03:09:51.920Z,3.30
2022-12-23T03:13:20.487Z,2.92
2022-12-23T03:16:20.596Z,3.17
2022-12-23T03:19:06.547Z,2.90
2022-12-23T03:22:07.456Z,2.63
2022-12-23T03:24:53.550Z,2.08
2022-12-23T03:27:36.422Z,2.80
2022-12-23T03:30:03.505Z,2.40
2022-12-23T03:32:38.155Z,2.07
2022-12-23T03:35:08.615Z,1.67
2022-12-23T03:37:40.923Z,1.42
2022-12-23T03:40:17.060Z,1.63
2022-12-23T03:42:50.234Z,2.15
2022-12-23T03:45:38.762Z,1.90
2022-12-23T03:48:17.541Z,2.03
2022-12-23T03:50:47.756Z,2.55
2022-12-23T03:53:31.143Z,3.00
2022-12-23T03:56:10.054Z,2.72
2022-12-23T03:58:52.941Z,2.60
2022-12-23T04:01:41.609Z,2.22
2022-12-23T04:04:26.539Z,2.70
2022-12-23T04:07:30.807Z,2.67
2022-12-23T04:09:59.030Z,2.75
2022-12-23T04:12:27.869Z,2.83
2022-12-23T04:14:55.004Z,2.55
2022-12-23T04:17:22.356Z,2.80
2022-12-23T04:19:50.840Z,2.33
2022-12-23T04:22:17.920Z,2.72
2022-12-23T04:24:45.189Z,2.97
2022-12-23T04:27:16.652Z,2.58
2022-12-23T04:29:44.296Z,2.50
2022-12-23T04:32:11.449Z,2.60
2022-12-23T04:34:38.543Z,2.20
2022-12-23T04:37:05.640Z,2.20
2022-12-23T04:39:32.892Z,2.35
2022-12-23T04:42:00.353Z,2.75
2022-12-23T04:44:27.451Z,2.22
2022-12-23T04:46:54.638Z,2.10
2022-12-23T04:49:21.723Z,2.40
2022-12-23T04:51:48.860Z,2.47
2022-12-23T04:54:16.217Z,2.05
2022-12-23T04:56:43.290Z,2.13
2022-12-23T04:59:11.193Z,2.15
2022-12-23T05:01:38.683Z,2.07
2022-12-23T05:04:06.033Z,2.05
2022-12-23T05:06:33.261Z,2.58
2022-12-23T05:09:00.361Z,2.13
2022-12-23T05:11:27.755Z,1.65
2022-12-23T05:13:54.950Z,2.00
2022-12-23T05:16:22.529Z,2.50
2022-12-23T05:18:49.732Z,2.40
2022-12-23T05:21:17.680Z,2.53
2022-12-23T05:23:44.817Z,2.28
2022-12-23T05:26:11.969Z,2.43
2022-12-23T05:28:39.471Z,2.65
2022-12-23T05:31:08.424Z,2.38
2022-12-23T05:33:35.981Z,2.50
2022-12-23T05:36:03.448Z,2.65
2022-12-23T05:38:30.850Z,2.53
2022-12-23T05:40:58.211Z,2.15
2022-12-23T05:43:25.425Z,2.72
2022-12-23T05:45:53.048Z,2.13
2022-12-23T05:48:20.199Z,2.80
2022-12-23T05:50:51.397Z,2.30
2022-12-23T05:53:19.577Z,1.80
2022-12-23T05:55:47.172Z,2.53
2022-12-23T05:58:14.710Z,3.17
2022-12-23T06:00:41.909Z,2.70
2022-12-23T06:03:09.304Z,2.47
2022-12-23T06:05:38.910Z,2.30
2022-12-23T06:08:06.537Z,3.28
2022-12-23T06:10:33.712Z,3.28
2022-12-23T06:13:00.788Z,2.80
2022-12-23T06:15:27.908Z,2.63
2022-12-23T06:17:56.328Z,2.70
2022-12-23T06:20:23.441Z,2.72
2022-12-23T06:22:50.593Z,2.60
2022-12-23T06:25:18.035Z,2.33
2022-12-23T06:27:45.173Z,2.90
2022-12-23T06:30:13.092Z,2.75
2022-12-23T06:32:40.878Z,2.90
2022-12-23T06:35:09.057Z,2.45
2022-12-23T06:37:36.285Z,2.78
2022-12-23T06:40:04.068Z,2.50
2022-12-23T06:42:31.267Z,2.33
2022-12-23T06:44:58.420Z,2.92
2022-12-23T06:47:25.479Z,3.05
2022-12-23T06:49:52.581Z,2.95
2022-12-23T06:52:19.732Z,3.27
2022-12-23T06:54:46.849Z,3.17
2022-12-23T06:57:13.943Z,2.70
2022-12-23T06:59:41.110Z,2.45
2022-12-23T07:02:11.817Z,2.53
2022-12-23T07:04:39.298Z,2.13
2022-12-23T07:07:32.477Z,2.53
2022-12-23T07:10:02.467Z,2.15
2022-12-23T07:12:34.457Z,2.75
2022-12-23T07:15:07.014Z,2.50
2022-12-23T07:17:45.575Z,2.70
2022-12-23T07:20:15.535Z,2.92
2022-12-23T07:22:45.224Z,2.80
2022-12-23T07:25:20.086Z,2.70
2022-12-23T07:27:59.997Z,3.60
2022-12-23T07:30:32.044Z,2.30
2022-12-23T07:33:02.504Z,3.10
2022-12-23T07:35:34.015Z,3.53
2022-12-23T07:38:09.574Z,3.20
2022-12-23T07:40:36.999Z,2.90
2022-12-23T07:43:04.362Z,2.37
2022-12-23T07:45:31.859Z,2.85
2022-12-23T07:48:04.267Z,2.47
2022-12-23T07:50:38.160Z,2.20
2022-12-23T07:53:05.396Z,2.45
2022-12-23T07:55:32.469Z,2.63
2022-12-23T07:58:01.834Z,2.28
2022-12-23T08:00:29.031Z,2.38
2022-12-23T08:02:56.197Z,2.03
2022-12-23T08:05:23.535Z,2.67
2022-12-23T08:07:52.218Z,2.00
2022-12-23T08:10:19.551Z,1.95
2022-12-23T08:12:46.683Z,2.20
2022-12-23T08:15:14.139Z,1.85
2022-12-23T08:17:41.314Z,1.98
2022-12-23T08:20:09.110Z,1.63
2022-12-23T08:22:36.330Z,1.90
2022-12-23T08:25:03.845Z,2.17
2022-12-23T08:27:30.986Z,1.85
2022-12-23T08:29:58.181Z,1.80
2022-12-23T08:32:38.722Z,1.70
2022-12-23T08:35:14.662Z,1.52
2022-12-23T08:37:49.221Z,1.63
2022-12-23T08:40:22.528Z,1.95
2022-12-23T08:43:05.420Z,2.55
2022-12-23T08:45:39.980Z,1.67
2022-12-23T08:48:20.609Z,3.08
2022-12-23T08:50:50.697Z,2.80
2022-12-23T08:53:17.902Z,2.50
2022-12-23T08:55:48.080Z,2.95
2022-12-23T08:58:16.128Z,3.07
2022-12-23T09:00:43.447Z,2.88
2022-12-23T09:03:10.763Z,3.92
2022-12-23T09:05:42.255Z,3.92
2022-12-23T09:08:09.715Z,3.17
2022-12-23T09:10:44.738Z,3.23
2022-12-23T09:13:16.353Z,3.30
2022-12-23T09:15:49.757Z,3.15
2022-12-23T09:18:16.932Z,3.65
2022-12-23T09:20:44.130Z,4.20
2022-12-23T09:23:11.228Z,3.83
2022-12-23T09:25:38.736Z,4.10
2022-12-23T09:28:07.338Z,4.43
2022-12-23T09:30:34.417Z,3.88
2022-12-23T09:33:01.519Z,4.13
2022-12-23T09:35:28.594Z,3.77
2022-12-23T09:37:56.557Z,5.55
2022-12-23T09:40:23.782Z,5.35
2022-12-23T09:42:53.565Z,5.60
2022-12-23T09:46:03.405Z,6.10
2022-12-23T09:48:41.149Z,4.20
2022-12-23T09:51:10.886Z,4.00
2022-12-23T09:53:56.852Z,4.18
2022-12-23T09:56:52.442Z,3.40
2022-12-23T09:59:25.499Z,3.90
2022-12-23T10:02:00.105Z,4.13
2022-12-23T10:05:03.699Z,4.57
2022-12-23T10:07:54.986Z,4.45
2022-12-23T10:10:33.703Z,4.60
2022-12-23T10:13:06.016Z,5.18
2022-12-23T10:15:48.640Z,5.37
2022-12-23T10:18:45.211Z,4.57
2022-12-23T10:21:49.439Z,4.80
2022-12-23T10:24:35.347Z,4.32
2022-12-23T10:27:32.708Z,5.10
2022-12-23T10:30:51.496Z,4.50
2022-12-23T10:33:20.153Z,4.95
2022-12-23T10:36:17.304Z,5.00
2022-12-23T10:39:03.086Z,4.63
2022-12-23T10:41:39.309Z,4.32
2022-12-23T10:44:28.693Z,5.70
2022-12-23T10:47:40.310Z,5.03
2022-12-23T10:50:29.716Z,5.70
2022-12-23T10:53:01.522Z,3.97
2022-12-23T10:55:34.375Z,3.78
2022-12-23T10:58:18.362Z,4.30
2022-12-23T11:00:56.337Z,3.78
2022-12-23T11:03:34.227Z,3.72
2022-12-23T11:06:02.394Z,3.70
2022-12-23T11:08:31.550Z,3.47
2022-12-23T11:11:03.756Z,3.00
2022-12-23T11:13:40.531Z,3.22
2022-12-23T11:16:18.526Z,2.90
2022-12-23T11:19:16.080Z,3.70
2022-12-23T11:21:55.819Z,3.10
2022-12-23T11:24:24.802Z,3.10
2022-12-23T11:27:04.039Z,3.28
2022-12-23T11:29:36.228Z,3.40
2022-12-23T11:32:17.506Z,2.50
2022-12-23T11:34:46.909Z,2.00
2022-12-23T11:37:41.227Z,2.73
2022-12-23T11:40:28.699Z,2.28
2022-12-23T11:43:03.605Z,2.30
2022-12-23T11:45:36.934Z,2.25
2022-12-23T11:48:06.835Z,2.28
2022-12-23T11:50:38.995Z,1.60
2022-12-23T11:53:25.123Z,1.45
2022-12-23T11:56:09.696Z,1.90
2022-12-23T11:59:07.437Z,1.35
2022-12-23T12:01:36.085Z,1.48
2022-12-23T12:04:09.618Z,1.53
2022-12-23T12:06:43.038Z,1.70
2022-12-23T12:09:13.572Z,1.60
2022-12-23T12:11:50.074Z,1.67
2022-12-23T12:14:56.829Z,1.42
2022-12-23T12:17:40.802Z,1.90
2022-12-23T12:20:38.861Z,1.60
2022-12-23T12:23:38.088Z,1.30
2022-12-23T12:26:25.452Z,1.33
2022-12-23T12:29:32.162Z,1.45
2022-12-23T12:32:01.753Z,1.10
2022-12-23T12:34:37.641Z,1.33
2022-12-23T12:37:37.245Z,1.40
2022-12-23T12:40:25.818Z,1.20
2022-12-23T12:43:17.326Z,1.17
2022-12-23T12:46:08.832Z,0.80
2022-12-23T12:49:05.757Z,0.90
2022-12-23T12:51:58.304Z,0.88
2022-12-23T12:54:37.239Z,0.77
2022-12-23T12:57:04.692Z,0.98
2022-12-23T12:59:35.692Z,0.97
2022-12-23T13:02:35.486Z,0.90
2022-12-23T13:05:11.461Z,0.60
2022-12-23T13:08:13.782Z,0.98
2022-12-23T13:10:55.745Z,1.00
2022-12-23T13:14:15.872Z,0.90
2022-12-23T13:16:54.152Z,1.00
2022-12-23T13:19:41.912Z,0.75
2022-12-23T13:22:18.207Z,1.25
2022-12-23T13:25:00.562Z,0.93
2022-12-23T13:27:34.918Z,1.47
2022-12-23T13:30:14.304Z,1.05
2022-12-23T13:33:28.170Z,1.38
2022-12-23T13:36:33.626Z,1.13
2022-12-23T13:39:28.157Z,0.98
2022-12-23T13:42:04.653Z,0.80
2022-12-23T13:44:34.468Z,1.05
2022-12-23T13:47:07.653Z,0.95
2022-12-23T13:49:47.090Z,1.00
2022-12-23T13:53:00.099Z,0.90
2022-12-23T13:55:42.245Z,0.97
2022-12-23T13:58:23.089Z,0.88
2022-12-23T14:01:30.504Z,0.98
2022-12-23T14:04:37.881Z,1.10
2022-12-23T14:07:21.111Z,1.02
2022-12-23T14:10:13.208Z,1.37
2022-12-23T14:12:42.704Z,0.90
2022-12-23T14:15:58.647Z,1.10
2022-12-23T14:19:07.974Z,1.00
2022-12-23T14:21:46.874Z,1.00
2022-12-23T14:24:49.152Z,0.57
2022-12-23T14:27:45.828Z,1.02
2022-12-23T14:30:42.744Z,0.70
2022-12-23T14:33:18.799Z,1.38
2022-12-23T14:35:45.865Z,1.17
2022-12-23T14:38:16.069Z,1.10
2022-12-23T14:40:43.119Z,0.82
2022-12-23T14:43:22.871Z,1.00
2022-12-23T14:46:01.413Z,1.05
2022-12-23T14:48:34.772Z,1.35
2022-12-23T14:51:38.004Z,1.17
2022-12-23T14:54:14.386Z,0.80
2022-12-23T14:56:42.045Z,0.90
2022-12-23T14:59:39.095Z,0.63
2022-12-23T15:02:09.176Z,1.17
2022-12-23T15:04:55.009Z,0.70
2022-12-23T15:07:34.837Z,1.10
2022-12-23T15:10:04.758Z,1.02
2022-12-23T15:12:36.772Z,1.13
2022-12-23T15:15:27.014Z,1.60
2022-12-23T15:18:13.594Z,0.80
2022-12-23T15:20:47.427Z,1.75
2022-12-23T15:23:17.971Z,1.38
2022-12-23T15:25:49.041Z,1.20
2022-12-23T15:28:23.598Z,2.00
2022-12-23T15:30:58.547Z,1.80
2022-12-23T15:36:34.572Z,1.35
2022-12-23T15:39:08.725Z,1.45
2022-12-23T15:41:47.167Z,1.63
2022-12-23T15:44:23.684Z,2.03
2022-12-23T15:46:52.120Z,1.10
2022-12-23T15:49:21.784Z,1.30
2022-12-23T15:52:11.116Z,1.40
2022-12-23T15:54:55.543Z,1.17
2022-12-23T15:57:27.388Z,1.40
2022-12-23T15:59:54.863Z,1.30
2022-12-23T16:03:00.459Z,1.55
2022-12-23T16:05:36.954Z,2.03
2022-12-23T16:08:29.070Z,2.22
2022-12-23T16:11:19.933Z,2.37
2022-12-23T16:14:03.176Z,2.05
2022-12-23T16:16:43.649Z,1.60
2022-12-23T16:19:35.929Z,1.33
2022-12-23T16:22:30.221Z,1.73
2022-12-23T16:25:26.615Z,1.87
2022-12-23T16:28:04.737Z,2.22
2022-12-23T16:30:36.207Z,2.20
2022-12-23T16:33:27.983Z,2.03
2022-12-23T16:35:56.149Z,2.05
2022-12-23T16:38:26.591Z,1.33
2022-12-23T16:40:57.380Z,2.22
2022-12-23T16:43:25.609Z,2.22
2022-12-23T16:45:56.296Z,1.98
2022-12-23T16:48:39.256Z,1.30
2022-12-23T16:51:11.767Z,2.13
2022-12-23T16:53:39.269Z,2.25
2022-12-23T16:56:15.313Z,2.85
2022-12-23T16:58:43.616Z,1.52
2022-12-23T17:01:39.167Z,1.52
2022-12-23T17:04:07.679Z,2.20
2022-12-23T17:06:36.153Z,1.90
2022-12-23T17:09:06.062Z,2.25
2022-12-23T17:11:37.894Z,1.65
2022-12-23T17:14:11.901Z,2.03
2022-12-23T17:16:42.889Z,2.20
2022-12-23T17:19:11.469Z,1.70
2022-12-23T17:21:40.536Z,2.13
2022-12-23T17:24:26.086Z,2.10
2022-12-23T17:26:54.852Z,2.88
2022-12-23T17:29:22.359Z,2.87
2022-12-23T17:31:50.941Z,3.10
2022-12-23T17:34:21.794Z,2.10
2022-12-23T17:36:50.785Z,2.40
2022-12-23T17:39:19.742Z,1.48
2022-12-23T17:41:47.747Z,1.93
2022-12-23T17:44:17.296Z,2.22
2022-12-23T17:46:46.558Z,1.63
2022-12-23T17:49:14.053Z,1.80
2022-12-23T17:51:42.454Z,2.13
2022-12-23T17:54:24.494Z,2.30
2022-12-23T17:56:52.180Z,1.50
2022-12-23T17:59:20.515Z,2.78
2022-12-23T18:01:48.030Z,2.58
2022-12-23T18:04:15.668Z,1.70
2022-12-23T18:06:42.744Z,1.77
2022-12-23T18:09:09.866Z,1.90
2022-12-23T18:11:42.366Z,2.25
2022-12-23T18:14:28.014Z,2.20
2022-12-23T18:16:55.363Z,1.98
2022-12-23T18:19:22.602Z,2.07
2022-12-23T18:21:51.495Z,2.33
2022-12-23T18:24:18.792Z,2.20
2022-12-23T18:26:46.205Z,2.85
2022-12-23T18:29:14.163Z,2.20
2022-12-23T18:31:52.060Z,1.97
2022-12-23T18:34:20.272Z,2.08
2022-12-23T18:36:48.377Z,2.25
2022-12-23T18:39:15.762Z,2.33
2022-12-23T18:41:42.833Z,2.80
2022-12-23T18:44:21.114Z,2.00
2022-12-23T18:46:49.362Z,2.10
2022-12-23T18:49:16.567Z,1.90
2022-12-23T18:51:43.791Z,2.85
2022-12-23T18:54:15.820Z,2.65
2022-12-23T18:56:43.483Z,1.67
2022-12-23T18:59:29.174Z,1.50
2022-12-23T19:01:57.707Z,2.05
2022-12-23T19:04:28.448Z,1.77
2022-12-23T19:06:56.964Z,1.58
2022-12-23T19:09:25.231Z,2.17
2022-12-23T19:11:54.201Z,2.75
2022-12-23T19:14:21.780Z,2.67
2022-12-23T19:16:51.898Z,3.20
2022-12-23T19:19:21.369Z,2.03
2022-12-23T19:21:48.560Z,2.27
2022-12-23T19:24:15.683Z,2.55
2022-12-23T19:26:42.934Z,2.75
2022-12-23T19:29:10.097Z,1.85
2022-12-23T19:31:37.198Z,1.98
2022-12-23T19:34:06.977Z,3.03
2022-12-23T19:36:37.042Z,2.08
2022-12-23T19:39:04.421Z,1.17
2022-12-23T19:41:31.550Z,1.92
2022-12-23T19:43:58.658Z,2.00
2022-12-23T19:46:25.972Z,2.00
2022-12-23T19:48:53.424Z,1.80
2022-12-23T19:51:20.805Z,1.83
2022-12-23T19:53:53.487Z,1.67
2022-12-23T19:56:21.561Z,1.27
2022-12-23T19:58:50.209Z,2.57
2022-12-23T20:01:25.000Z,2.17
2022-12-23T20:03:55.122Z,1.70
2022-12-23T20:06:35.492Z,1.67
2022-12-23T20:09:06.461Z,1.90
2022-12-23T20:11:40.595Z,1.83
2022-12-23T20:14:08.973Z,2.88
2022-12-23T20:16:37.755Z,1.67
2022-12-23T20:19:05.327Z,1.23
2022-12-23T20:21:34.007Z,2.00
2022-12-23T20:24:01.581Z,2.27
2022-12-23T20:26:29.256Z,1.60
2022-12-23T20:28:57.863Z,1.55
2022-12-23T20:31:31.168Z,2.00
2022-12-23T20:33:58.942Z,2.03
2022-12-23T20:36:29.449Z,2.13
2022-12-23T20:38:57.324Z,3.20
2022-12-23T20:41:29.782Z,1.90
2022-12-23T20:44:32.425Z,2.70
2022-12-23T20:46:47.186Z,1.85
2022-12-23T20:49:14.413Z,1.73
2022-12-23T20:51:41.567Z,2.20
2022-12-23T20:54:09.306Z,3.10
2022-12-23T20:56:36.489Z,2.28
2022-12-23T20:59:04.021Z,3.03
2022-12-23T21:01:38.260Z,1.80
2022-12-23T21:04:12.784Z,2.27
2022-12-23T21:06:40.101Z,2.50
2022-12-23T21:09:09.771Z,2.30
2022-12-23T21:11:40.920Z,2.03
2022-12-23T21:14:08.225Z,2.70
2022-12-23T21:16:37.545Z,2.53
2022-12-23T21:19:07.946Z,2.08
2022-12-23T21:21:38.078Z,1.98
2022-12-23T21:24:05.980Z,2.05
2022-12-23T21:26:34.711Z,2.50
2022-12-23T21:29:04.981Z,2.23
2022-12-23T21:31:35.928Z,2.05
2022-12-23T21:34:03.798Z,1.55
2022-12-23T21:36:35.651Z,2.25
2022-12-23T21:39:04.453Z,2.40
2022-12-23T21:41:36.202Z,1.90
2022-12-23T21:44:05.970Z,1.55
2022-12-23T21:46:34.334Z,1.98
2022-12-23T21:49:03.457Z,1.60
2022-12-23T21:51:39.572Z,3.42
2022-12-23T21:54:12.526Z,2.10
2022-12-23T21:56:40.966Z,1.80
2022-12-23T21:59:13.410Z,1.92
2022-12-23T22:01:45.634Z,2.42
2022-12-23T22:04:14.398Z,1.90
2022-12-23T22:06:46.891Z,2.27
2022-12-23T22:09:19.886Z,2.00
2022-12-23T22:11:48.528Z,1.70
2022-12-23T22:14:19.359Z,2.30
2022-12-23T22:16:46.582Z,2.17
2022-12-23T22:19:13.881Z,2.23
2022-12-23T22:21:42.648Z,1.48
2022-12-23T22:24:11.187Z,2.10
2022-12-23T22:26:40.225Z,2.38
2022-12-23T22:29:07.419Z,2.58
2022-12-23T22:31:37.512Z,2.07
2022-12-23T22:34:05.700Z,1.98
2022-12-23T22:36:33.475Z,2.35
2022-12-23T22:39:01.945Z,2.00
2022-12-23T22:41:30.370Z,3.28
2022-12-23T22:43:59.103Z,1.67
2022-12-23T22:46:27.901Z,1.95
2022-12-23T22:48:55.362Z,1.75
2022-12-23T22:51:29.471Z,1.70
2022-12-23T22:53:57.625Z,2.13
2022-12-23T22:56:26.200Z,2.03
2022-12-23T22:58:54.217Z,2.38
2022-12-23T23:01:23.961Z,2.20
2022-12-23T23:03:57.328Z,1.58
2022-12-23T23:06:39.394Z,2.03
2022-12-23T23:09:10.028Z,1.47
2022-12-23T23:11:37.103Z,1.55
2022-12-23T23:14:04.819Z,1.98
2022-12-23T23:16:32.159Z,1.67
2022-12-23T23:18:59.961Z,1.92
2022-12-23T23:21:27.477Z,1.37
2022-12-23T23:23:54.593Z,1.67
2022-12-23T23:26:26.681Z,2.33
2022-12-23T23:28:55.611Z,1.65
2022-12-23T23:34:11.384Z,1.90
2022-12-23T23:36:38.793Z,2.00
2022-12-23T23:39:06.017Z,1.88
2022-12-23T23:41:33.245Z,1.40
2022-12-23T23:44:00.318Z,1.67
2022-12-23T23:46:27.566Z,2.17
2022-12-23T23:48:54.705Z,2.40
2022-12-23T23:51:21.777Z,1.88
2022-12-23T23:53:49.204Z,2.03
2022-12-23T23:56:21.963Z,1.67
2022-12-23T23:58:52.224Z,1.87
